sensor_id;sensor_type;location;lat;lon;timestamp;temperature;humidity
11188;DHT22;5650;52.700;7.306;2024-01-25T00:00:26;10.10;99.90
11188;DHT22;5650;52.700;7.306;2024-01-25T00:02:53;10.10;99.90
11188;DHT22;5650;52.700;7.306;2024-01-25T00:05:20;10.10;99.90
11188;DHT22;5650;52.700;7.306;2024-01-25T00:07:47;10.10;99.90
11188;DHT22;5650;52.700;7.306;2024-01-25T00:10:18;10.20;99.90
11188;DHT22;5650;52.700;7.306;2024-01-25T00:12:45;10.10;99.90
11188;DHT22;5650;52.700;7.306;2024-01-25T00:15:13;10.10;99.90
11188;DHT22;5650;52.700;7.306;2024-01-25T00:17:46;10.10;99.90
11188;DHT22;5650;52.700;7.306;2024-01-25T00:20:13;10.10;99.90
11188;DHT22;5650;52.700;7.306;2024-01-25T00:22:43;10.10;99.90
11188;DHT22;5650;52.700;7.306;2024-01-25T00:25:17;10.00;99.90
11188;DHT22;5650;52.700;7.306;2024-01-25T00:27:44;10.10;99.90
11188;DHT22;5650;52.700;7.306;2024-01-25T00:30:13;10.00;99.90
11188;DHT22;5650;52.700;7.306;2024-01-25T00:32:45;9.80;99.90
11188;DHT22;5650;52.700;7.306;2024-01-25T00:35:13;10.00;99.90
11188;DHT22;5650;52.700;7.306;2024-01-25T00:37:41;9.90;99.90
11188;DHT22;5650;52.700;7.306;2024-01-25T00:40:14;9.90;99.90
11188;DHT22;5650;52.700;7.306;2024-01-25T00:42:45;9.70;99.90
11188;DHT22;5650;52.700;7.306;2024-01-25T00:45:21;9.80;99.90
11188;DHT22;5650;52.700;7.306;2024-01-25T00:47:51;9.80;99.90
11188;DHT22;5650;52.700;7.306;2024-01-25T00:50:19;9.80;99.90
11188;DHT22;5650;52.700;7.306;2024-01-25T00:52:50;9.80;99.90
11188;DHT22;5650;52.700;7.306;2024-01-25T00:55:17;9.80;99.90
11188;DHT22;5650;52.700;7.306;2024-01-25T00:57:52;9.80;99.90
11188;DHT22;5650;52.700;7.306;2024-01-25T01:00:21;9.80;99.90
11188;DHT22;5650;52.700;7.306;2024-01-25T01:02:50;9.80;99.90
11188;DHT22;5650;52.700;7.306;2024-01-25T01:05:20;9.80;99.90
11188;DHT22;5650;52.700;7.306;2024-01-25T01:07:51;9.80;99.90
11188;DHT22;5650;52.700;7.306;2024-01-25T01:10:18;9.90;99.90
11188;DHT22;5650;52.700;7.306;2024-01-25T01:12:45;9.80;99.90
11188;DHT22;5650;52.700;7.306;2024-01-25T01:15:13;9.80;99.90
11188;DHT22;5650;52.700;7.306;2024-01-25T01:17:50;9.80;99.90
11188;DHT22;5650;52.700;7.306;2024-01-25T01:20:17;9.90;99.90
11188;DHT22;5650;52.700;7.306;2024-01-25T01:22:45;9.80;99.90
11188;DHT22;5650;52.700;7.306;2024-01-25T01:25:12;9.80;99.90
11188;DHT22;5650;52.700;7.306;2024-01-25T01:27:45;9.80;99.90
11188;DHT22;5650;52.700;7.306;2024-01-25T01:30:15;9.80;99.90
11188;DHT22;5650;52.700;7.306;2024-01-25T01:32:42;9.80;99.90
11188;DHT22;5650;52.700;7.306;2024-01-25T01:35:11;9.70;99.90
11188;DHT22;5650;52.700;7.306;2024-01-25T01:37:44;9.70;99.90
11188;DHT22;5650;52.700;7.306;2024-01-25T01:40:12;9.70;99.90
11188;DHT22;5650;52.700;7.306;2024-01-25T01:42:42;9.70;99.90
11188;DHT22;5650;52.700;7.306;2024-01-25T01:45:14;9.70;99.90
11188;DHT22;5650;52.700;7.306;2024-01-25T01:47:44;9.60;99.90
11188;DHT22;5650;52.700;7.306;2024-01-25T01:50:13;9.70;99.90
11188;DHT22;5650;52.700;7.306;2024-01-25T01:52:43;9.60;99.90
11188;DHT22;5650;52.700;7.306;2024-01-25T01:55:10;9.60;99.90
11188;DHT22;5650;52.700;7.306;2024-01-25T01:57:38;9.60;99.90
11188;DHT22;5650;52.700;7.306;2024-01-25T02:00:07;9.60;99.90
11188;DHT22;5650;52.700;7.306;2024-01-25T02:02:37;9.60;99.90
11188;DHT22;5650;52.700;7.306;2024-01-25T02:05:15;9.50;99.90
11188;DHT22;5650;52.700;7.306;2024-01-25T02:07:42;9.50;99.90
11188;DHT22;5650;52.700;7.306;2024-01-25T02:10:12;9.50;99.90
11188;DHT22;5650;52.700;7.306;2024-01-25T02:12:41;9.40;99.90
11188;DHT22;5650;52.700;7.306;2024-01-25T02:15:11;9.30;99.90
11188;DHT22;5650;52.700;7.306;2024-01-25T02:17:38;9.30;99.90
11188;DHT22;5650;52.700;7.306;2024-01-25T02:20:07;9.40;99.90
11188;DHT22;5650;52.700;7.306;2024-01-25T02:22:35;9.30;99.90
11188;DHT22;5650;52.700;7.306;2024-01-25T02:25:03;9.40;99.90
11188;DHT22;5650;52.700;7.306;2024-01-25T02:27:30;9.30;99.90
11188;DHT22;5650;52.700;7.306;2024-01-25T02:29:57;9.30;99.90
11188;DHT22;5650;52.700;7.306;2024-01-25T02:32:24;9.20;99.90
11188;DHT22;5650;52.700;7.306;2024-01-25T02:34:51;9.20;99.90
11188;DHT22;5650;52.700;7.306;2024-01-25T02:37:18;9.30;99.90
11188;DHT22;5650;52.700;7.306;2024-01-25T02:40:05;9.20;99.90
11188;DHT22;5650;52.700;7.306;2024-01-25T02:42:39;9.20;99.90
11188;DHT22;5650;52.700;7.306;2024-01-25T02:45:06;9.10;99.90
11188;DHT22;5650;52.700;7.306;2024-01-25T02:47:34;9.00;99.90
11188;DHT22;5650;52.700;7.306;2024-01-25T02:50:01;9.10;99.90
11188;DHT22;5650;52.700;7.306;2024-01-25T02:52:28;9.30;99.90
11188;DHT22;5650;52.700;7.306;2024-01-25T02:54:56;9.40;99.90
11188;DHT22;5650;52.700;7.306;2024-01-25T02:57:31;9.40;99.90
11188;DHT22;5650;52.700;7.306;2024-01-25T02:59:58;9.40;99.90
11188;DHT22;5650;52.700;7.306;2024-01-25T03:02:28;9.40;99.90
11188;DHT22;5650;52.700;7.306;2024-01-25T03:04:57;9.30;99.90
11188;DHT22;5650;52.700;7.306;2024-01-25T03:07:24;9.30;99.90
11188;DHT22;5650;52.700;7.306;2024-01-25T03:09:52;9.40;99.90
11188;DHT22;5650;52.700;7.306;2024-01-25T03:12:19;9.30;99.90
11188;DHT22;5650;52.700;7.306;2024-01-25T03:14:48;9.30;99.90
11188;DHT22;5650;52.700;7.306;2024-01-25T03:17:15;9.30;99.90
11188;DHT22;5650;52.700;7.306;2024-01-25T03:19:42;9.30;99.90
11188;DHT22;5650;52.700;7.306;2024-01-25T03:22:16;9.30;99.90
11188;DHT22;5650;52.700;7.306;2024-01-25T03:24:43;9.20;99.90
11188;DHT22;5650;52.700;7.306;2024-01-25T03:27:10;9.20;99.90
11188;DHT22;5650;52.700;7.306;2024-01-25T03:29:42;9.20;99.90
11188;DHT22;5650;52.700;7.306;2024-01-25T03:32:18;9.30;99.90
11188;DHT22;5650;52.700;7.306;2024-01-25T03:34:45;9.20;99.90
11188;DHT22;5650;52.700;7.306;2024-01-25T03:37:12;9.20;99.90
11188;DHT22;5650;52.700;7.306;2024-01-25T03:39:39;9.20;99.90
11188;DHT22;5650;52.700;7.306;2024-01-25T03:42:12;9.20;99.90
11188;DHT22;5650;52.700;7.306;2024-01-25T03:44:42;9.10;99.90
11188;DHT22;5650;52.700;7.306;2024-01-25T03:47:15;9.10;99.90
11188;DHT22;5650;52.700;7.306;2024-01-25T03:49:48;9.10;99.90
11188;DHT22;5650;52.700;7.306;2024-01-25T03:52:15;9.00;99.90
11188;DHT22;5650;52.700;7.306;2024-01-25T03:54:42;9.00;99.90
11188;DHT22;5650;52.700;7.306;2024-01-25T03:57:41;9.10;99.90
11188;DHT22;5650;52.700;7.306;2024-01-25T04:00:12;9.10;99.90
11188;DHT22;5650;52.700;7.306;2024-01-25T04:02:41;9.10;99.90
11188;DHT22;5650;52.700;7.306;2024-01-25T04:05:11;9.10;99.90
11188;DHT22;5650;52.700;7.306;2024-01-25T04:07:41;9.20;99.90
11188;DHT22;5650;52.700;7.306;2024-01-25T04:10:08;9.10;99.90
11188;DHT22;5650;52.700;7.306;2024-01-25T04:12:39;9.10;99.90
11188;DHT22;5650;52.700;7.306;2024-01-25T04:15:09;9.10;99.90
11188;DHT22;5650;52.700;7.306;2024-01-25T04:17:36;9.10;99.90
11188;DHT22;5650;52.700;7.306;2024-01-25T04:20:06;9.00;99.90
11188;DHT22;5650;52.700;7.306;2024-01-25T04:22:40;9.00;99.90
11188;DHT22;5650;52.700;7.306;2024-01-25T04:25:08;9.10;99.90
11188;DHT22;5650;52.700;7.306;2024-01-25T04:27:37;9.10;99.90
11188;DHT22;5650;52.700;7.306;2024-01-25T04:30:08;9.10;99.90
11188;DHT22;5650;52.700;7.306;2024-01-25T04:32:38;9.00;99.90
11188;DHT22;5650;52.700;7.306;2024-01-25T04:35:08;9.00;99.90
11188;DHT22;5650;52.700;7.306;2024-01-25T04:37:44;9.00;99.90
11188;DHT22;5650;52.700;7.306;2024-01-25T04:40:14;9.00;99.90
11188;DHT22;5650;52.700;7.306;2024-01-25T04:42:44;9.10;99.90
11188;DHT22;5650;52.700;7.306;2024-01-25T04:45:12;8.90;99.90
11188;DHT22;5650;52.700;7.306;2024-01-25T04:50:48;8.90;99.90
11188;DHT22;5650;52.700;7.306;2024-01-25T04:53:16;8.90;99.90
11188;DHT22;5650;52.700;7.306;2024-01-25T04:55:43;9.00;99.90
11188;DHT22;5650;52.700;7.306;2024-01-25T04:58:10;8.90;99.90
11188;DHT22;5650;52.700;7.306;2024-01-25T05:00:40;9.00;99.90
11188;DHT22;5650;52.700;7.306;2024-01-25T05:03:10;8.90;99.90
11188;DHT22;5650;52.700;7.306;2024-01-25T05:05:37;8.90;99.90
11188;DHT22;5650;52.700;7.306;2024-01-25T05:08:08;8.80;99.90
11188;DHT22;5650;52.700;7.306;2024-01-25T05:10:35;8.80;99.90
11188;DHT22;5650;52.700;7.306;2024-01-25T05:13:11;8.80;99.90
11188;DHT22;5650;52.700;7.306;2024-01-25T05:15:41;8.50;99.90
11188;DHT22;5650;52.700;7.306;2024-01-25T05:18:14;8.20;99.90
11188;DHT22;5650;52.700;7.306;2024-01-25T05:20:42;8.20;99.90
11188;DHT22;5650;52.700;7.306;2024-01-25T05:23:16;8.20;99.90
11188;DHT22;5650;52.700;7.306;2024-01-25T05:25:46;8.20;99.90
11188;DHT22;5650;52.700;7.306;2024-01-25T05:28:14;8.20;99.90
11188;DHT22;5650;52.700;7.306;2024-01-25T05:30:42;8.10;99.90
11188;DHT22;5650;52.700;7.306;2024-01-25T05:33:09;8.10;99.90
11188;DHT22;5650;52.700;7.306;2024-01-25T05:35:39;8.10;99.90
11188;DHT22;5650;52.700;7.306;2024-01-25T05:38:07;8.20;99.90
11188;DHT22;5650;52.700;7.306;2024-01-25T05:40:37;8.20;99.90
11188;DHT22;5650;52.700;7.306;2024-01-25T05:43:05;8.20;99.90
11188;DHT22;5650;52.700;7.306;2024-01-25T05:45:38;8.20;99.90
11188;DHT22;5650;52.700;7.306;2024-01-25T05:48:06;8.30;99.90
11188;DHT22;5650;52.700;7.306;2024-01-25T05:50:35;8.30;99.90
11188;DHT22;5650;52.700;7.306;2024-01-25T05:53:02;8.30;99.90
11188;DHT22;5650;52.700;7.306;2024-01-25T05:55:29;8.30;99.90
11188;DHT22;5650;52.700;7.306;2024-01-25T06:01:20;8.30;99.90
11188;DHT22;5650;52.700;7.306;2024-01-25T06:03:47;8.20;99.90
11188;DHT22;5650;52.700;7.306;2024-01-25T06:06:14;8.20;99.90
11188;DHT22;5650;52.700;7.306;2024-01-25T06:08:41;8.20;99.90
11188;DHT22;5650;52.700;7.306;2024-01-25T06:11:11;8.00;99.90
11188;DHT22;5650;52.700;7.306;2024-01-25T06:13:39;8.00;99.90
11188;DHT22;5650;52.700;7.306;2024-01-25T06:16:10;7.90;99.90
11188;DHT22;5650;52.700;7.306;2024-01-25T06:18:41;7.80;99.90
11188;DHT22;5650;52.700;7.306;2024-01-25T06:21:11;7.70;99.90
11188;DHT22;5650;52.700;7.306;2024-01-25T06:23:44;7.70;99.90
11188;DHT22;5650;52.700;7.306;2024-01-25T06:26:12;7.60;99.90
11188;DHT22;5650;52.700;7.306;2024-01-25T06:28:39;7.60;99.90
11188;DHT22;5650;52.700;7.306;2024-01-25T06:31:06;7.60;99.90
11188;DHT22;5650;52.700;7.306;2024-01-25T06:33:34;7.60;99.90
11188;DHT22;5650;52.700;7.306;2024-01-25T06:36:06;7.60;99.90
11188;DHT22;5650;52.700;7.306;2024-01-25T06:38:36;7.60;99.90
11188;DHT22;5650;52.700;7.306;2024-01-25T06:41:03;7.70;99.90
11188;DHT22;5650;52.700;7.306;2024-01-25T06:43:37;7.60;99.90
11188;DHT22;5650;52.700;7.306;2024-01-25T06:46:11;7.60;99.90
11188;DHT22;5650;52.700;7.306;2024-01-25T06:48:45;7.50;99.90
11188;DHT22;5650;52.700;7.306;2024-01-25T06:51:20;7.50;99.90
11188;DHT22;5650;52.700;7.306;2024-01-25T06:53:47;7.50;99.90
11188;DHT22;5650;52.700;7.306;2024-01-25T06:56:15;7.50;99.90
11188;DHT22;5650;52.700;7.306;2024-01-25T06:58:42;7.40;99.90
11188;DHT22;5650;52.700;7.306;2024-01-25T07:01:12;6.90;99.90
11188;DHT22;5650;52.700;7.306;2024-01-25T07:03:46;6.60;99.90
11188;DHT22;5650;52.700;7.306;2024-01-25T07:06:18;6.30;99.90
11188;DHT22;5650;52.700;7.306;2024-01-25T07:08:48;6.10;99.90
11188;DHT22;5650;52.700;7.306;2024-01-25T07:11:16;6.00;99.90
11188;DHT22;5650;52.700;7.306;2024-01-25T07:13:43;5.80;99.90
11188;DHT22;5650;52.700;7.306;2024-01-25T07:16:11;5.70;99.90
11188;DHT22;5650;52.700;7.306;2024-01-25T07:18:41;5.70;99.90
11188;DHT22;5650;52.700;7.306;2024-01-25T07:21:11;5.60;99.90
11188;DHT22;5650;52.700;7.306;2024-01-25T07:23:39;5.60;99.90
11188;DHT22;5650;52.700;7.306;2024-01-25T07:26:09;5.60;99.90
11188;DHT22;5650;52.700;7.306;2024-01-25T07:28:45;5.50;99.90
11188;DHT22;5650;52.700;7.306;2024-01-25T07:31:13;5.50;99.90
11188;DHT22;5650;52.700;7.306;2024-01-25T07:33:40;5.50;99.90
11188;DHT22;5650;52.700;7.306;2024-01-25T07:36:10;5.50;99.90
11188;DHT22;5650;52.700;7.306;2024-01-25T07:38:40;5.50;99.90
11188;DHT22;5650;52.700;7.306;2024-01-25T07:41:13;5.50;99.90
11188;DHT22;5650;52.700;7.306;2024-01-25T07:43:49;5.50;99.90
11188;DHT22;5650;52.700;7.306;2024-01-25T07:46:20;5.50;99.90
11188;DHT22;5650;52.700;7.306;2024-01-25T07:48:49;5.50;99.90
11188;DHT22;5650;52.700;7.306;2024-01-25T07:51:16;5.50;99.90
11188;DHT22;5650;52.700;7.306;2024-01-25T07:53:44;5.50;99.90
11188;DHT22;5650;52.700;7.306;2024-01-25T07:56:12;5.50;99.90
11188;DHT22;5650;52.700;7.306;2024-01-25T07:58:42;5.60;99.90
11188;DHT22;5650;52.700;7.306;2024-01-25T08:01:12;5.60;99.90
11188;DHT22;5650;52.700;7.306;2024-01-25T08:03:40;5.60;99.90
11188;DHT22;5650;52.700;7.306;2024-01-25T08:06:10;5.60;99.90
11188;DHT22;5650;52.700;7.306;2024-01-25T08:08:40;5.60;99.90
11188;DHT22;5650;52.700;7.306;2024-01-25T08:11:18;5.70;99.90
11188;DHT22;5650;52.700;7.306;2024-01-25T08:13:46;5.70;99.90
11188;DHT22;5650;52.700;7.306;2024-01-25T08:16:13;5.80;99.90
11188;DHT22;5650;52.700;7.306;2024-01-25T08:18:47;5.80;99.90
11188;DHT22;5650;52.700;7.306;2024-01-25T08:21:15;5.90;99.90
11188;DHT22;5650;52.700;7.306;2024-01-25T08:23:44;5.90;99.90
11188;DHT22;5650;52.700;7.306;2024-01-25T08:26:14;6.00;99.90
11188;DHT22;5650;52.700;7.306;2024-01-25T08:28:46;6.00;99.90
11188;DHT22;5650;52.700;7.306;2024-01-25T08:31:14;6.10;99.90
11188;DHT22;5650;52.700;7.306;2024-01-25T08:33:41;6.10;99.90
11188;DHT22;5650;52.700;7.306;2024-01-25T08:36:16;6.10;99.90
11188;DHT22;5650;52.700;7.306;2024-01-25T08:38:44;6.10;99.90
11188;DHT22;5650;52.700;7.306;2024-01-25T08:41:11;6.10;99.90
11188;DHT22;5650;52.700;7.306;2024-01-25T08:43:39;6.20;99.90
11188;DHT22;5650;52.700;7.306;2024-01-25T08:46:17;6.20;99.90
11188;DHT22;5650;52.700;7.306;2024-01-25T08:48:47;6.20;99.90
11188;DHT22;5650;52.700;7.306;2024-01-25T08:51:14;6.20;99.90
11188;DHT22;5650;52.700;7.306;2024-01-25T08:53:44;6.20;99.90
11188;DHT22;5650;52.700;7.306;2024-01-25T08:56:19;6.20;99.90
11188;DHT22;5650;52.700;7.306;2024-01-25T08:58:46;6.30;99.90
11188;DHT22;5650;52.700;7.306;2024-01-25T09:01:15;6.30;99.90
11188;DHT22;5650;52.700;7.306;2024-01-25T09:03:45;6.30;99.90
11188;DHT22;5650;52.700;7.306;2024-01-25T09:06:13;6.30;99.90
11188;DHT22;5650;52.700;7.306;2024-01-25T09:08:43;6.30;99.90
11188;DHT22;5650;52.700;7.306;2024-01-25T09:11:13;6.30;99.90
11188;DHT22;5650;52.700;7.306;2024-01-25T09:13:46;6.40;99.90
11188;DHT22;5650;52.700;7.306;2024-01-25T09:16:16;6.40;99.90
11188;DHT22;5650;52.700;7.306;2024-01-25T09:18:49;6.40;99.90
11188;DHT22;5650;52.700;7.306;2024-01-25T09:21:18;6.40;99.90
11188;DHT22;5650;52.700;7.306;2024-01-25T09:23:48;6.50;99.90
11188;DHT22;5650;52.700;7.306;2024-01-25T09:26:18;6.60;99.90
11188;DHT22;5650;52.700;7.306;2024-01-25T09:28:49;6.50;99.90
11188;DHT22;5650;52.700;7.306;2024-01-25T09:31:17;6.60;99.90
11188;DHT22;5650;52.700;7.306;2024-01-25T09:33:47;6.60;99.90
11188;DHT22;5650;52.700;7.306;2024-01-25T09:36:17;6.60;99.90
11188;DHT22;5650;52.700;7.306;2024-01-25T09:38:56;6.70;99.90
11188;DHT22;5650;52.700;7.306;2024-01-25T09:41:24;6.80;99.90
11188;DHT22;5650;52.700;7.306;2024-01-25T09:44:01;6.80;99.90
11188;DHT22;5650;52.700;7.306;2024-01-25T09:46:32;6.80;99.90
11188;DHT22;5650;52.700;7.306;2024-01-25T09:49:02;6.80;99.90
11188;DHT22;5650;52.700;7.306;2024-01-25T09:51:39;6.90;99.90
11188;DHT22;5650;52.700;7.306;2024-01-25T09:54:16;7.00;99.90
11188;DHT22;5650;52.700;7.306;2024-01-25T09:56:46;7.10;99.90
11188;DHT22;5650;52.700;7.306;2024-01-25T09:59:16;7.20;99.90
11188;DHT22;5650;52.700;7.306;2024-01-25T10:01:46;7.20;99.90
11188;DHT22;5650;52.700;7.306;2024-01-25T10:04:22;7.20;99.90
11188;DHT22;5650;52.700;7.306;2024-01-25T10:06:51;7.20;99.90
11188;DHT22;5650;52.700;7.306;2024-01-25T10:09:23;7.30;99.90
11188;DHT22;5650;52.700;7.306;2024-01-25T10:11:50;7.30;99.90
11188;DHT22;5650;52.700;7.306;2024-01-25T10:14:17;7.30;99.90
11188;DHT22;5650;52.700;7.306;2024-01-25T10:16:49;7.40;99.90
11188;DHT22;5650;52.700;7.306;2024-01-25T10:19:17;7.30;99.90
11188;DHT22;5650;52.700;7.306;2024-01-25T10:21:50;7.40;99.90
11188;DHT22;5650;52.700;7.306;2024-01-25T10:24:17;7.40;99.90
11188;DHT22;5650;52.700;7.306;2024-01-25T10:26:50;7.50;99.90
11188;DHT22;5650;52.700;7.306;2024-01-25T10:29:17;7.50;99.90
11188;DHT22;5650;52.700;7.306;2024-01-25T10:31:46;7.50;99.90
11188;DHT22;5650;52.700;7.306;2024-01-25T10:34:14;7.50;99.90
11188;DHT22;5650;52.700;7.306;2024-01-25T10:36:42;7.50;99.90
11188;DHT22;5650;52.700;7.306;2024-01-25T10:39:12;7.50;99.90
11188;DHT22;5650;52.700;7.306;2024-01-25T10:41:41;7.50;99.90
11188;DHT22;5650;52.700;7.306;2024-01-25T10:44:14;7.50;99.90
11188;DHT22;5650;52.700;7.306;2024-01-25T10:46:48;7.50;99.90
11188;DHT22;5650;52.700;7.306;2024-01-25T10:49:17;7.50;99.90
11188;DHT22;5650;52.700;7.306;2024-01-25T10:51:45;7.50;99.90
11188;DHT22;5650;52.700;7.306;2024-01-25T10:54:13;7.50;99.90
11188;DHT22;5650;52.700;7.306;2024-01-25T10:56:49;7.50;99.90
11188;DHT22;5650;52.700;7.306;2024-01-25T10:59:17;7.50;99.90
11188;DHT22;5650;52.700;7.306;2024-01-25T11:01:45;7.60;99.90
11188;DHT22;5650;52.700;7.306;2024-01-25T11:04:18;7.70;99.90
11188;DHT22;5650;52.700;7.306;2024-01-25T11:06:45;7.80;99.90
11188;DHT22;5650;52.700;7.306;2024-01-25T11:09:18;7.90;99.90
11188;DHT22;5650;52.700;7.306;2024-01-25T11:11:47;8.00;99.90
11188;DHT22;5650;52.700;7.306;2024-01-25T11:14:15;8.10;99.90
11188;DHT22;5650;52.700;7.306;2024-01-25T11:16:46;8.10;99.90
11188;DHT22;5650;52.700;7.306;2024-01-25T11:19:18;8.20;99.90
11188;DHT22;5650;52.700;7.306;2024-01-25T11:21:49;8.30;99.90
11188;DHT22;5650;52.700;7.306;2024-01-25T11:24:20;8.30;99.90
11188;DHT22;5650;52.700;7.306;2024-01-25T11:26:48;8.30;99.90
11188;DHT22;5650;52.700;7.306;2024-01-25T11:29:16;8.40;99.90
11188;DHT22;5650;52.700;7.306;2024-01-25T11:31:43;8.50;99.90
11188;DHT22;5650;52.700;7.306;2024-01-25T11:34:12;8.60;99.90
11188;DHT22;5650;52.700;7.306;2024-01-25T11:36:45;8.60;99.90
11188;DHT22;5650;52.700;7.306;2024-01-25T11:39:13;8.70;99.90
11188;DHT22;5650;52.700;7.306;2024-01-25T11:41:42;8.70;99.90
11188;DHT22;5650;52.700;7.306;2024-01-25T11:44:12;8.70;99.90
11188;DHT22;5650;52.700;7.306;2024-01-25T11:46:41;8.70;99.90
11188;DHT22;5650;52.700;7.306;2024-01-25T11:49:14;8.90;99.90
11188;DHT22;5650;52.700;7.306;2024-01-25T11:51:41;8.90;99.90
11188;DHT22;5650;52.700;7.306;2024-01-25T11:54:13;8.90;99.90
11188;DHT22;5650;52.700;7.306;2024-01-25T11:56:43;8.90;99.90
11188;DHT22;5650;52.700;7.306;2024-01-25T11:59:13;8.90;99.90
11188;DHT22;5650;52.700;7.306;2024-01-25T12:01:43;9.00;99.90
11188;DHT22;5650;52.700;7.306;2024-01-25T12:04:10;9.00;99.90
11188;DHT22;5650;52.700;7.306;2024-01-25T12:06:41;9.00;99.90
11188;DHT22;5650;52.700;7.306;2024-01-25T12:09:12;9.00;99.90
11188;DHT22;5650;52.700;7.306;2024-01-25T12:11:44;9.00;99.90
11188;DHT22;5650;52.700;7.306;2024-01-25T12:14:16;9.00;99.90
11188;DHT22;5650;52.700;7.306;2024-01-25T12:16:43;9.00;99.90
11188;DHT22;5650;52.700;7.306;2024-01-25T12:19:15;9.00;99.90
11188;DHT22;5650;52.700;7.306;2024-01-25T12:21:45;9.00;99.90
11188;DHT22;5650;52.700;7.306;2024-01-25T12:24:16;9.00;99.90
11188;DHT22;5650;52.700;7.306;2024-01-25T12:26:44;8.90;99.90
11188;DHT22;5650;52.700;7.306;2024-01-25T12:29:14;8.90;99.90
11188;DHT22;5650;52.700;7.306;2024-01-25T12:31:45;8.90;99.90
11188;DHT22;5650;52.700;7.306;2024-01-25T12:34:15;8.90;99.90
11188;DHT22;5650;52.700;7.306;2024-01-25T12:36:43;8.90;99.90
11188;DHT22;5650;52.700;7.306;2024-01-25T12:39:13;8.90;99.90
11188;DHT22;5650;52.700;7.306;2024-01-25T12:41:42;8.80;99.90
11188;DHT22;5650;52.700;7.306;2024-01-25T12:44:18;8.80;99.90
11188;DHT22;5650;52.700;7.306;2024-01-25T12:46:45;8.80;99.90
11188;DHT22;5650;52.700;7.306;2024-01-25T12:49:15;8.80;99.90
11188;DHT22;5650;52.700;7.306;2024-01-25T12:51:42;8.80;99.90
11188;DHT22;5650;52.700;7.306;2024-01-25T12:54:09;8.80;99.90
11188;DHT22;5650;52.700;7.306;2024-01-25T12:56:47;8.90;99.90
11188;DHT22;5650;52.700;7.306;2024-01-25T12:59:14;8.90;99.90
11188;DHT22;5650;52.700;7.306;2024-01-25T13:01:41;8.90;99.90
11188;DHT22;5650;52.700;7.306;2024-01-25T13:04:08;9.00;99.90
11188;DHT22;5650;52.700;7.306;2024-01-25T13:06:38;9.00;99.90
11188;DHT22;5650;52.700;7.306;2024-01-25T13:09:15;9.00;99.90
11188;DHT22;5650;52.700;7.306;2024-01-25T13:11:42;9.00;99.90
11188;DHT22;5650;52.700;7.306;2024-01-25T13:14:11;8.90;99.90
11188;DHT22;5650;52.700;7.306;2024-01-25T13:16:38;8.80;99.90
11188;DHT22;5650;52.700;7.306;2024-01-25T13:19:11;8.80;99.90
11188;DHT22;5650;52.700;7.306;2024-01-25T13:21:44;8.80;99.90
11188;DHT22;5650;52.700;7.306;2024-01-25T13:24:14;8.70;99.90
11188;DHT22;5650;52.700;7.306;2024-01-25T13:26:48;8.70;99.90
11188;DHT22;5650;52.700;7.306;2024-01-25T13:29:16;8.70;99.90
11188;DHT22;5650;52.700;7.306;2024-01-25T13:31:43;8.70;99.90
11188;DHT22;5650;52.700;7.306;2024-01-25T13:34:10;8.70;99.90
11188;DHT22;5650;52.700;7.306;2024-01-25T13:36:42;8.70;99.90
11188;DHT22;5650;52.700;7.306;2024-01-25T13:39:12;8.70;99.90
11188;DHT22;5650;52.700;7.306;2024-01-25T13:41:39;8.70;99.90
11188;DHT22;5650;52.700;7.306;2024-01-25T13:44:09;8.70;99.90
11188;DHT22;5650;52.700;7.306;2024-01-25T13:46:38;8.70;99.90
11188;DHT22;5650;52.700;7.306;2024-01-25T13:49:06;8.70;99.90
11188;DHT22;5650;52.700;7.306;2024-01-25T13:51:33;8.70;99.90
11188;DHT22;5650;52.700;7.306;2024-01-25T13:54:03;8.70;99.90
11188;DHT22;5650;52.700;7.306;2024-01-25T13:56:30;8.70;99.90
11188;DHT22;5650;52.700;7.306;2024-01-25T13:59:01;8.70;99.90
11188;DHT22;5650;52.700;7.306;2024-01-25T14:01:39;8.70;99.90
11188;DHT22;5650;52.700;7.306;2024-01-25T14:04:13;8.70;99.90
11188;DHT22;5650;52.700;7.306;2024-01-25T14:06:43;8.70;99.90
11188;DHT22;5650;52.700;7.306;2024-01-25T14:09:10;8.70;99.90
11188;DHT22;5650;52.700;7.306;2024-01-25T14:11:47;8.80;99.90
11188;DHT22;5650;52.700;7.306;2024-01-25T14:14:17;8.70;99.90
11188;DHT22;5650;52.700;7.306;2024-01-25T14:16:47;8.70;99.90
11188;DHT22;5650;52.700;7.306;2024-01-25T14:19:14;8.70;99.90
11188;DHT22;5650;52.700;7.306;2024-01-25T14:21:45;8.60;99.90
11188;DHT22;5650;52.700;7.306;2024-01-25T14:24:13;8.60;99.90
11188;DHT22;5650;52.700;7.306;2024-01-25T14:26:43;8.50;99.90
11188;DHT22;5650;52.700;7.306;2024-01-25T14:29:17;8.50;99.90
11188;DHT22;5650;52.700;7.306;2024-01-25T14:31:44;8.40;99.90
11188;DHT22;5650;52.700;7.306;2024-01-25T14:34:12;8.40;99.90
11188;DHT22;5650;52.700;7.306;2024-01-25T14:36:42;8.30;99.90
11188;DHT22;5650;52.700;7.306;2024-01-25T14:39:09;8.30;99.90
11188;DHT22;5650;52.700;7.306;2024-01-25T14:41:37;8.30;99.90
11188;DHT22;5650;52.700;7.306;2024-01-25T14:44:04;8.20;99.90
11188;DHT22;5650;52.700;7.306;2024-01-25T14:46:31;8.20;99.90
11188;DHT22;5650;52.700;7.306;2024-01-25T14:48:58;8.20;99.90
11188;DHT22;5650;52.700;7.306;2024-01-25T14:51:27;8.20;99.90
11188;DHT22;5650;52.700;7.306;2024-01-25T14:53:54;8.20;99.90
11188;DHT22;5650;52.700;7.306;2024-01-25T14:56:21;8.20;99.90
11188;DHT22;5650;52.700;7.306;2024-01-25T14:58:48;8.10;99.90
11188;DHT22;5650;52.700;7.306;2024-01-25T15:01:16;8.10;99.90
11188;DHT22;5650;52.700;7.306;2024-01-25T15:03:44;8.10;99.90
11188;DHT22;5650;52.700;7.306;2024-01-25T15:06:11;8.10;99.90
11188;DHT22;5650;52.700;7.306;2024-01-25T15:08:40;8.00;99.90
11188;DHT22;5650;52.700;7.306;2024-01-25T15:11:07;8.00;99.90
11188;DHT22;5650;52.700;7.306;2024-01-25T15:13:33;7.90;99.90
11188;DHT22;5650;52.700;7.306;2024-01-25T15:16:00;7.90;99.90
11188;DHT22;5650;52.700;7.306;2024-01-25T15:18:27;7.90;99.90
11188;DHT22;5650;52.700;7.306;2024-01-25T15:20:55;7.80;99.90
11188;DHT22;5650;52.700;7.306;2024-01-25T15:23:22;7.80;99.90
11188;DHT22;5650;52.700;7.306;2024-01-25T15:25:51;7.80;99.90
11188;DHT22;5650;52.700;7.306;2024-01-25T15:28:19;7.70;99.90
11188;DHT22;5650;52.700;7.306;2024-01-25T15:30:46;7.70;99.90
11188;DHT22;5650;52.700;7.306;2024-01-25T15:33:13;7.70;99.90
11188;DHT22;5650;52.700;7.306;2024-01-25T15:35:40;7.70;99.90
11188;DHT22;5650;52.700;7.306;2024-01-25T15:38:08;7.60;99.90
11188;DHT22;5650;52.700;7.306;2024-01-25T15:40:35;7.60;99.90
11188;DHT22;5650;52.700;7.306;2024-01-25T15:43:04;7.60;99.90
11188;DHT22;5650;52.700;7.306;2024-01-25T15:45:31;7.50;99.90
11188;DHT22;5650;52.700;7.306;2024-01-25T15:47:58;7.50;99.90
11188;DHT22;5650;52.700;7.306;2024-01-25T15:50:26;7.50;99.90
11188;DHT22;5650;52.700;7.306;2024-01-25T15:52:53;7.50;99.90
11188;DHT22;5650;52.700;7.306;2024-01-25T15:55:23;7.50;99.90
11188;DHT22;5650;52.700;7.306;2024-01-25T15:57:50;7.50;99.90
11188;DHT22;5650;52.700;7.306;2024-01-25T16:00:20;7.50;99.90
11188;DHT22;5650;52.700;7.306;2024-01-25T16:02:47;7.50;99.90
11188;DHT22;5650;52.700;7.306;2024-01-25T16:05:14;8.00;99.90
11188;DHT22;5650;52.700;7.306;2024-01-25T16:07:41;8.40;99.90
11188;DHT22;5650;52.700;7.306;2024-01-25T16:10:09;8.60;99.90
11188;DHT22;5650;52.700;7.306;2024-01-25T16:12:36;8.80;99.90
11188;DHT22;5650;52.700;7.306;2024-01-25T16:15:04;9.00;99.90
11188;DHT22;5650;52.700;7.306;2024-01-25T16:17:33;9.10;99.90
11188;DHT22;5650;52.700;7.306;2024-01-25T16:20:00;9.20;99.90
11188;DHT22;5650;52.700;7.306;2024-01-25T16:22:29;9.20;99.90